Time;durP1;ratioP1;P1;durP2;ratioP2;P2;SDS_P1;SDS_P2;PMS_P1;PMS_P2;Temp;Humidity;BMP_temperature;BMP_pressure;BME280_temperature;BME280_humidity;BME280_pressure;Samples;Min_cycle;Max_cycle;Signal;HPM_P1;HPM_P2
2021/03/26 00:01:33;;;;;;;2.17;0.90;;;;;;;18.01;52.61;101854.31;6301772;22;19999;-79
2021/03/26 00:04:03;;;;;;;3.50;0.95;;;;;;;18.01;52.46;101851.72;6242881;23;20008;-79
2021/03/26 00:06:33;;;;;;;1.90;0.80;;;;;;;18.03;52.39;101857.75;6270103;23;19984;-80
2021/03/26 00:09:24;;;;;;;3.55;0.80;;;;;;;18.01;52.64;101864.72;6272689;23;20006;-79
2021/03/26 00:11:53;;;;;;;2.63;0.70;;;;;;;17.98;52.62;101862.09;6272361;23;20026;-79
2021/03/26 00:14:39;;;;;;;2.22;1.00;;;;;;;18.01;52.66;101865.59;6245966;23;19988;-79
2021/03/26 00:17:07;;;;;;;2.47;0.90;;;;;;;17.99;52.44;101864.72;6272184;23;20004;-79
2021/03/26 00:19:32;;;;;;;1.85;0.80;;;;;;;18.00;52.33;101862.97;6214972;23;20012;-79
2021/03/26 00:21:59;;;;;;;1.83;0.85;;;;;;;17.98;52.43;101862.94;6242380;23;20004;-79
2021/03/26 00:24:32;;;;;;;3.85;0.88;;;;;;;18.00;52.56;101857.75;6245185;23;20015;-79
2021/03/26 00:26:58;;;;;;;9.07;0.90;;;;;;;17.99;52.40;101856.03;6246024;23;20059;-79
2021/03/26 00:29:25;;;;;;;1.95;0.73;;;;;;;17.99;52.53;101856.91;6246719;23;19996;-79
2021/03/26 00:31:52;;;;;;;1.70;0.65;;;;;;;17.98;52.39;101851.66;6272920;22;20047;-79
2021/03/26 00:37:25;;;;;;;3.13;0.80;;;;;;;17.98;52.69;101841.25;6251264;23;20027;-79
2021/03/26 00:39:58;;;;;;;1.17;0.60;;;;;;;17.98;52.61;101836.03;6272886;23;20004;-79
2021/03/26 00:42:27;;;;;;;2.00;0.90;;;;;;;17.97;52.48;101829.09;6280489;22;20008;-79
2021/03/26 00:45:26;;;;;;;1.13;0.60;;;;;;;17.94;52.47;101826.47;6216061;23;20080;-79
2021/03/26 00:48:00;;;;;;;1.88;0.77;;;;;;;17.94;52.18;101822.13;6234034;23;20432;-79
2021/03/26 00:50:31;;;;;;;2.10;0.80;;;;;;;17.96;52.22;101827.34;6237905;23;20332;-79
2021/03/26 00:53:17;;;;;;;1.73;0.80;;;;;;;17.94;52.54;101832.53;6240650;23;20064;-79
2021/03/26 00:55:50;;;;;;;3.40;0.80;;;;;;;17.96;52.33;101825.59;6239738;23;20412;-79
2021/03/26 00:58:19;;;;;;;2.03;0.80;;;;;;;17.95;52.44;101825.63;6234653;23;20016;-79
2021/03/26 01:00:47;;;;;;;0.95;0.52;;;;;;;17.95;52.29;101823.88;6236915;23;20015;-79
2021/03/26 01:03:15;;;;;;;1.33;0.70;;;;;;;17.92;52.27;101818.69;6238864;23;19993;-80
2021/03/26 01:05:50;;;;;;;1.38;0.70;;;;;;;17.95;52.43;101823.03;6241970;23;20009;-79
2021/03/26 01:08:30;;;;;;;1.13;0.68;;;;;;;17.94;52.41;101818.66;6241472;23;19985;-79
2021/03/26 01:11:17;;;;;;;1.85;0.75;;;;;;;17.93;52.51;101806.53;6240006;23;20545;-79
2021/03/26 01:13:45;;;;;;;2.13;0.73;;;;;;;17.94;52.55;101816.06;6240124;23;20028;-79
2021/03/26 01:16:17;;;;;;;2.15;0.90;;;;;;;17.93;52.36;101802.16;6235903;23;20048;-79
2021/03/26 01:18:44;;;;;;;1.20;0.70;;;;;;;17.91;52.20;101800.44;6239798;23;20036;-79
2021/03/26 01:21:17;;;;;;;1.67;0.70;;;;;;;17.92;52.30;101804.75;6238727;23;20009;-79
2021/03/26 01:23:45;;;;;;;1.10;0.60;;;;;;;17.90;52.33;101796.97;6237674;23;20008;-79
2021/03/26 01:26:15;;;;;;;1.42;0.70;;;;;;;17.93;52.08;101809.97;6237923;23;19996;-79
2021/03/26 01:28:50;;;;;;;1.63;0.82;;;;;;;17.91;52.16;101797.81;6237170;23;20001;-79
2021/03/26 01:31:40;;;;;;;2.03;0.65;;;;;;;17.89;52.23;101796.06;6237241;23;20085;-79
2021/03/26 01:39:56;;;;;;;1.05;0.73;;;;;;;17.93;52.26;101796.97;6233818;23;20007;-79
2021/03/26 01:42:33;;;;;;;1.33;0.70;;;;;;;17.92;52.20;101792.63;6231968;23;19997;-79
2021/03/26 01:45:14;;;;;;;1.42;0.57;;;;;;;17.87;52.00;101797.78;6252020;23;20028;-79
2021/03/26 01:47:44;;;;;;;1.13;0.70;;;;;;;17.89;52.38;101790.88;6234237;23;20028;-79
2021/03/26 01:50:14;;;;;;;1.33;0.57;;;;;;;17.88;52.19;101788.28;6233162;23;20012;-79
2021/03/26 01:52:46;;;;;;;1.08;0.60;;;;;;;17.87;52.34;101778.69;6231179;23;20059;-79
2021/03/26 01:55:24;;;;;;;1.15;0.68;;;;;;;17.89;52.09;101775.25;6232067;23;20079;-79
2021/03/26 01:57:50;;;;;;;1.52;0.75;;;;;;;17.90;52.33;101773.53;6220736;23;20004;-79
2021/03/26 02:00:28;;;;;;;1.23;0.50;;;;;;;17.89;52.14;101774.38;6224374;23;20023;-80
2021/03/26 02:02:55;;;;;;;1.45;0.60;;;;;;;17.89;52.51;101775.25;6223395;23;20344;-80
2021/03/26 02:05:25;;;;;;;1.58;0.70;;;;;;;17.90;52.30;101768.31;6224152;23;20009;-79
2021/03/26 02:07:52;;;;;;;1.48;0.50;;;;;;;17.92;52.23;101765.69;6233215;23;20001;-79
2021/03/26 02:10:17;;;;;;;1.30;0.70;;;;;;;17.89;52.03;101764.81;6239262;23;20004;-79
2021/03/26 02:12:44;;;;;;;1.55;0.60;;;;;;;17.87;52.15;101756.13;6236623;23;20440;-80
2021/03/26 02:15:21;;;;;;;0.93;0.55;;;;;;;17.87;51.91;101748.31;6232624;23;20001;-79
2021/03/26 02:17:49;;;;;;;3.25;0.65;;;;;;;17.89;52.37;101753.53;6227194;23;20004;-79
2021/03/26 02:20:33;;;;;;;0.88;0.45;;;;;;;17.89;52.18;101748.34;6228031;23;20052;-79
2021/03/26 02:23:06;;;;;;;0.82;0.60;;;;;;;17.86;52.06;101757.00;6226418;23;20001;-80
2021/03/26 02:25:37;;;;;;;2.20;0.50;;;;;;;17.89;52.11;101748.34;6226993;23;20008;-80
2021/03/26 02:28:09;;;;;;;1.45;0.60;;;;;;;17.86;52.13;101748.34;6226257;23;20008;-80
2021/03/26 02:30:41;;;;;;;1.60;0.52;;;;;;;17.87;52.13;101744.84;6226386;23;20008;-80
2021/03/26 02:33:08;;;;;;;2.25;0.70;;;;;;;17.89;52.30;101749.19;6227319;23;20005;-79
2021/03/26 02:35:40;;;;;;;1.02;0.60;;;;;;;17.85;52.05;101739.63;6226402;23;20016;-80
2021/03/26 02:38:26;;;;;;;0.98;0.50;;;;;;;17.87;52.11;101745.72;6224040;23;20000;-80
2021/03/26 02:41:23;;;;;;;1.35;0.63;;;;;;;17.87;52.09;101740.50;6223138;23;20015;-80
2021/03/26 02:44:10;;;;;;;2.00;0.80;;;;;;;17.86;51.98;101743.13;6208729;23;20076;-79
2021/03/26 02:47:07;;;;;;;0.88;0.50;;;;;;;17.86;52.19;101730.13;6253181;23;20004;-79
2021/03/26 02:49:51;;;;;;;1.10;0.55;;;;;;;17.85;52.17;101734.44;6256997;23;20005;-80
2021/03/26 02:52:26;;;;;;;0.95;0.60;;;;;;;17.88;52.18;101731.00;6256563;22;20004;-79
2021/03/26 02:55:16;;;;;;;1.40;0.68;;;;;;;17.86;52.04;101728.38;6258905;22;20004;-79
2021/03/26 02:57:52;;;;;;;1.08;0.60;;;;;;;17.87;52.24;101730.09;6255487;23;20012;-79
2021/03/26 03:00:50;;;;;;;1.52;0.60;;;;;;;17.83;52.03;101715.34;6264798;23;20178;-79
2021/03/26 03:03:22;;;;;;;1.15;0.55;;;;;;;17.84;52.12;101717.06;6266918;22;20004;-79
2021/03/26 03:05:55;;;;;;;0.80;0.50;;;;;;;17.83;52.07;101712.75;6265508;23;20008;-79
2021/03/26 03:08:25;;;;;;;1.30;0.50;;;;;;;17.84;52.05;101717.06;6243317;23;19992;-79
2021/03/26 03:11:37;;;;;;;0.90;0.57;;;;;;;17.86;52.00;101720.56;6263801;22;20012;-79
2021/03/26 03:14:37;;;;;;;1.58;0.70;;;;;;;17.83;52.08;101707.53;6271112;22;20015;-79
2021/03/26 03:17:46;;;;;;;1.33;0.60;;;;;;;17.82;52.12;101708.38;6270045;22;20004;-79
2021/03/26 03:20:36;;;;;;;1.65;0.70;;;;;;;17.85;52.14;101713.59;6249767;22;20014;-79
2021/03/26 03:23:55;;;;;;;1.10;0.55;;;;;;;17.85;52.19;101716.19;6300262;22;20071;-79
2021/03/26 03:26:37;;;;;;;0.80;0.40;;;;;;;17.83;51.88;101710.16;6301552;22;20007;-79
2021/03/26 03:29:24;;;;;;;1.35;0.70;;;;;;;17.84;52.08;101706.66;6275660;22;20010;-79
2021/03/26 03:32:28;;;;;;;0.90;0.60;;;;;;;17.84;52.20;101705.81;6277542;22;20022;-79
2021/03/26 03:35:39;;;;;;;1.23;0.80;;;;;;;17.81;52.21;101703.13;6304405;22;20003;-79
2021/03/26 03:38:33;;;;;;;0.95;0.60;;;;;;;17.81;51.94;101701.44;6304061;22;20059;-79
2021/03/26 03:41:39;;;;;;;1.33;0.60;;;;;;;17.84;52.22;101705.81;6298605;22;20048;-79
2021/03/26 03:44:46;;;;;;;1.60;0.70;;;;;;;17.82;52.06;101703.19;6304185;22;20016;-79
2021/03/26 03:47:36;;;;;;;1.42;0.60;;;;;;;17.81;51.99;101696.22;6258894;22;20012;-79
2021/03/26 03:53:40;;;;;;;0.98;0.60;;;;;;;17.81;51.97;101704.03;6303959;22;20018;-79
2021/03/26 03:56:34;;;;;;;1.10;0.70;;;;;;;17.82;52.04;101700.56;6300159;22;20046;-79
2021/03/26 03:59:38;;;;;;;1.27;0.75;;;;;;;17.82;52.06;101704.91;6288639;22;20031;-79
2021/03/26 04:02:35;;;;;;;1.05;0.70;;;;;;;17.80;52.03;101697.06;6290612;22;20003;-80
2021/03/26 04:05:18;;;;;;;1.02;0.65;;;;;;;17.79;52.05;101695.34;6260652;22;20374;-80
2021/03/26 04:08:22;;;;;;;1.88;0.60;;;;;;;17.81;51.92;101701.44;6302153;22;20000;-80
2021/03/26 04:11:27;;;;;;;1.35;0.80;;;;;;;17.79;51.89;101682.31;6200757;22;20012;-79
2021/03/26 04:14:38;;;;;;;1.08;0.70;;;;;;;17.80;52.08;101681.44;6276863;22;20031;-80
2021/03/26 04:17:37;;;;;;;1.27;0.77;;;;;;;17.79;52.22;101671.00;6277142;22;20015;-80
2021/03/26 04:20:43;;;;;;;1.52;0.70;;;;;;;17.78;52.15;101670.16;6278103;22;20063;-79
2021/03/26 04:23:16;;;;;;;1.40;0.63;;;;;;;17.80;51.97;101663.22;6300383;22;19988;-80
2021/03/26 04:25:57;;;;;;;1.30;0.60;;;;;;;17.79;52.08;101660.59;6301101;22;20010;-80
2021/03/26 04:28:35;;;;;;;2.03;0.70;;;;;;;17.80;52.04;101662.34;6273524;22;20004;-80
2021/03/26 04:31:25;;;;;;;1.88;0.70;;;;;;;17.81;52.16;101664.09;6212240;23;20009;-80
2021/03/26 04:34:19;;;;;;;0.63;0.52;;;;;;;17.79;52.04;101664.09;6238240;22;20099;-80
2021/03/26 04:37:24;;;;;;;0.93;0.63;;;;;;;17.78;52.16;101659.75;6205257;23;20060;-80
2021/03/26 04:39:52;;;;;;;;;;;;;;;17.80;52.00;101663.22;6207559;23;20005;-79
2021/03/26 04:42:45;;;;;;;0.82;0.60;;;;;;;17.78;52.01;101661.47;6205800;23;19927;-81
2021/03/26 04:45:33;;;;;;;2.03;0.80;;;;;;;17.80;52.03;101663.22;6179324;23;20040;-80
2021/03/26 04:48:32;;;;;;;1.40;0.60;;;;;;;17.82;52.14;101652.84;6203358;23;20005;-80
2021/03/26 04:51:49;;;;;;;1.42;0.60;;;;;;;17.80;52.30;101663.22;6179149;23;20015;-79
2021/03/26 04:54:40;;;;;;;1.33;0.68;;;;;;;17.82;52.26;101655.47;6172332;23;20033;-80
2021/03/26 04:57:36;;;;;;;0.82;0.60;;;;;;;17.82;52.27;101648.50;6177954;23;20001;-80
2021/03/26 05:00:23;;;;;;;1.13;0.60;;;;;;;17.81;52.49;101648.47;6178095;23;20016;-80
2021/03/26 05:03:05;;;;;;;2.17;0.68;;;;;;;17.83;52.31;101647.66;6288882;22;20025;-80
2021/03/26 05:05:36;;;;;;;1.30;0.70;;;;;;;17.81;52.31;101643.25;6296489;22;20008;-80
2021/03/26 05:08:25;;;;;;;1.25;0.68;;;;;;;17.83;52.18;101652.88;6270391;22;20011;-80
2021/03/26 05:11:10;;;;;;;1.33;0.90;;;;;;;17.84;52.26;101656.34;6272198;22;20000;-80
2021/03/26 05:14:01;;;;;;;1.20;0.70;;;;;;;17.84;52.30;101651.97;6274956;22;19996;-80
2021/03/26 05:16:55;;;;;;;1.50;1.00;;;;;;;17.84;52.31;101644.16;6277943;22;20084;-80
2021/03/26 05:19:48;;;;;;;1.20;0.80;;;;;;;17.81;52.13;101640.66;6303984;22;19980;-80
2021/03/26 05:23:04;;;;;;;1.27;0.60;;;;;;;17.84;52.22;101644.16;6304001;22;20051;-80
2021/03/26 05:25:34;;;;;;;;;;;;;;;17.85;52.25;101639.81;6296542;22;20031;-80
2021/03/26 05:28:03;;;;;;;1.45;0.90;;;;;;;17.85;52.07;101639.81;6275466;22;19907;-81
2021/03/26 05:30:48;;;;;;;3.05;0.68;;;;;;;17.84;52.46;101635.50;6302814;22;20020;-78
2021/03/26 05:33:33;;;;;;;1.00;0.70;;;;;;;17.87;52.19;101638.09;6278883;22;19984;-78
2021/03/26 05:36:32;;;;;;;1.45;0.70;;;;;;;17.86;52.35;101639.84;6303421;22;19987;-80
2021/03/26 05:39:31;;;;;;;1.30;0.77;;;;;;;17.87;52.38;101636.34;6303980;22;20020;-79
2021/03/26 05:42:15;;;;;;;3.00;0.88;;;;;;;17.88;52.35;101637.25;6304169;22;19998;-78
2021/03/26 05:45:06;;;;;;;1.38;0.75;;;;;;;17.89;52.45;101636.38;6302957;22;20008;-80
2021/03/26 05:47:53;;;;;;;0.60;0.60;;;;;;;17.88;52.25;101639.84;6302462;22;19992;-78
2021/03/26 05:53:28;;;;;;;1.40;0.90;;;;;;;17.92;52.31;101638.09;6249933;22;20076;-80
2021/03/26 05:56:32;;;;;;;3.33;0.80;;;;;;;17.92;52.36;101633.78;6304929;22;20003;-79
2021/03/26 05:59:25;;;;;;;1.08;0.63;;;;;;;17.91;52.26;101634.63;6303274;22;20059;-79
2021/03/26 06:02:32;;;;;;;3.30;1.00;;;;;;;17.91;52.28;101631.16;6271534;22;20008;-79
2021/03/26 06:05:30;;;;;;;1.42;0.90;;;;;;;17.99;52.32;101638.13;6286445;22;20034;-80
2021/03/26 06:08:31;;;;;;;3.85;0.90;;;;;;;17.98;52.34;101638.13;6231729;22;20035;-79
2021/03/26 06:14:38;;;;;;;2.88;1.17;;;;;;;17.99;52.55;101632.06;6303812;22;20050;-79
2021/03/26 06:17:37;;;;;;;1.85;1.20;;;;;;;17.99;52.47;101635.53;6276678;22;20023;-78
2021/03/26 06:23:16;;;;;;;2.00;1.10;;;;;;;17.98;52.59;101628.56;6269464;23;20030;-79
2021/03/26 06:26:01;;;;;;;3.83;1.60;;;;;;;17.98;52.42;101623.34;6269408;23;20016;-79
2021/03/26 06:28:44;;;;;;;;;;;;;;;18.07;52.27;101627.69;6272365;23;20004;-80
2021/03/26 06:31:51;;;;;;;9.63;3.22;;;;;;;18.13;52.05;101619.91;6284799;22;19899;-79
2021/03/26 06:35:16;;;;;;;13.10;3.17;;;;;;;18.19;52.10;101617.31;6301987;22;20078;-80
2021/03/26 06:38:33;;;;;;;7.60;2.60;;;;;;;18.23;51.91;101616.44;6301362;22;20106;-79
2021/03/26 06:41:37;;;;;;;5.80;2.80;;;;;;;18.29;52.24;101621.66;6272733;22;20066;-79
2021/03/26 06:44:20;;;;;;;10.50;3.00;;;;;;;18.33;52.03;101617.28;6274464;22;20035;-80
2021/03/26 06:47:24;;;;;;;5.03;2.67;;;;;;;18.36;52.02;101621.66;6298867;22;20004;-80
2021/03/26 06:50:33;;;;;;;8.63;3.20;;;;;;;18.37;52.03;101613.81;6298446;22;20007;-80
2021/03/26 06:53:11;;;;;;;6.93;2.72;;;;;;;18.41;51.88;101612.97;6284716;22;20023;-80
2021/03/26 06:56:04;;;;;;;9.00;2.65;;;;;;;18.47;51.67;101615.56;6272751;22;20067;-80
2021/03/26 06:58:38;;;;;;;8.40;2.53;;;;;;;18.53;51.69;101608.59;6301952;22;20011;-80
2021/03/26 07:01:28;;;;;;;5.35;2.75;;;;;;;18.58;51.58;101612.09;6297468;22;20565;-80
2021/03/26 07:04:21;;;;;;;8.45;2.92;;;;;;;18.63;51.29;101616.41;6269396;22;19996;-80
2021/03/26 07:07:29;;;;;;;6.28;2.35;;;;;;;18.67;51.44;101615.53;6298177;22;20073;-80
2021/03/26 07:10:08;;;;;;;5.93;2.88;;;;;;;18.77;51.06;101616.41;6268979;22;20312;-81
2021/03/26 07:12:57;;;;;;;3.83;2.33;;;;;;;18.98;50.55;101607.66;6269095;22;20065;-80
2021/03/26 07:16:01;;;;;;;4.40;2.67;;;;;;;18.95;50.52;101609.44;6292343;22;20050;-80
2021/03/26 07:18:47;;;;;;;6.10;2.38;;;;;;;18.88;50.62;101614.66;6287991;22;20416;-81
2021/03/26 07:21:47;;;;;;;6.05;2.38;;;;;;;19.04;50.20;101612.88;6292144;22;19999;-83
2021/03/26 07:24:31;;;;;;;4.40;2.30;;;;;;;21.16;44.81;101607.81;6257843;22;20087;-85
2021/03/26 07:27:20;;;;;;;3.92;2.35;;;;;;;21.85;42.87;101603.41;6258338;22;20047;-80
2021/03/26 07:30:13;;;;;;;3.38;2.03;;;;;;;20.67;45.88;101614.47;6255173;22;20493;-83
2021/03/26 07:32:49;;;;;;;3.85;2.20;;;;;;;20.25;46.93;101603.50;6286939;22;20003;-85
2021/03/26 07:35:17;;;;;;;3.83;2.33;;;;;;;20.67;46.19;101605.75;6265228;22;20008;-85
2021/03/26 07:38:04;;;;;;;4.85;2.47;;;;;;;22.20;42.20;101602.84;6292604;22;20015;-84
2021/03/26 07:40:52;;;;;;;4.60;2.50;;;;;;;22.15;42.41;101602.06;6290708;22;20099;-85
2021/03/26 07:43:23;;;;;;;5.82;2.50;;;;;;;22.73;40.90;101594.94;6291261;22;20061;-85
2021/03/26 07:45:58;;;;;;;4.65;2.70;;;;;;;22.72;40.96;101596.69;6263526;22;20034;-82
2021/03/26 07:48:40;;;;;;;7.80;2.67;;;;;;;21.15;44.52;101593.84;6262390;22;20076;-83
2021/03/26 07:51:30;;;;;;;3.47;2.30;;;;;;;20.32;46.75;101594.72;6289399;22;20004;-89
2021/03/26 07:54:17;;;;;;;3.67;1.92;;;;;;;20.13;47.07;101593.13;6263469;22;20055;-87
2021/03/26 07:57:06;;;;;;;3.97;2.15;;;;;;;20.26;46.87;101589.53;6289062;22;20000;-89
2021/03/26 07:59:48;;;;;;;4.32;2.20;;;;;;;20.40;46.43;101592.00;6269924;22;20003;-90
2021/03/26 08:02:25;;;;;;;4.35;2.03;;;;;;;20.66;45.67;101590.94;6285362;22;20426;-88
2021/03/26 08:05:05;;;;;;;3.85;2.20;;;;;;;20.71;45.57;101587.41;6256949;22;20059;-89
2021/03/26 08:07:52;;;;;;;3.75;2.28;;;;;;;20.63;46.03;101590.97;6255528;22;20088;-89
2021/03/26 08:10:47;;;;;;;5.00;2.20;;;;;;;20.83;45.43;101586.38;6281949;22;20011;-90
2021/03/26 08:13:35;;;;;;;4.70;2.35;;;;;;;21.66;43.23;101587.94;6247915;22;20082;-84
2021/03/26 08:16:33;;;;;;;4.07;2.20;;;;;;;22.35;41.84;101588.63;6278585;22;20014;-83
2021/03/26 08:19:21;;;;;;;3.42;2.08;;;;;;;22.11;42.31;101580.25;6279157;22;20064;-82
2021/03/26 08:21:55;;;;;;;3.20;2.10;;;;;;;21.81;43.02;101578.16;6255760;22;20063;-83
2021/03/26 08:24:42;;;;;;;3.65;2.20;;;;;;;21.51;43.61;101569.84;6251757;22;20011;-86
2021/03/26 08:27:19;;;;;;;2.60;1.92;;;;;;;21.22;44.40;101575.47;6251935;22;20036;-85
2021/03/26 08:30:46;;;;;;;4.93;2.10;;;;;;;20.93;45.02;101572.31;6252655;22;20011;-86
2021/03/26 08:33:30;;;;;;;2.67;1.83;;;;;;;20.81;45.47;101577.69;6252427;22;20008;-85
2021/03/26 08:36:28;;;;;;;3.05;1.90;;;;;;;20.62;46.05;101565.69;6272932;22;20376;-86
2021/03/26 08:39:00;;;;;;;4.03;1.80;;;;;;;20.51;46.20;101569.28;6282515;22;20060;-86
2021/03/26 08:41:33;;;;;;;4.13;2.33;;;;;;;20.42;46.43;101558.03;6249963;22;20003;-86
2021/03/26 08:43:59;;;;;;;3.15;1.83;;;;;;;20.32;46.62;101563.34;6249928;22;20008;-88
2021/03/26 08:46:36;;;;;;;2.63;1.88;;;;;;;20.27;46.94;101567.75;6249886;22;20035;-82
2021/03/26 08:49:23;;;;;;;3.47;2.00;;;;;;;20.20;47.03;101566.06;6278648;22;20450;-88
2021/03/26 08:52:25;;;;;;;4.22;2.22;;;;;;;20.14;47.18;101563.50;6248975;22;20015;-87
2021/03/26 08:55:20;;;;;;;2.97;1.98;;;;;;;20.05;47.35;101572.28;6277752;22;20015;-88
2021/03/26 08:58:07;;;;;;;2.72;1.70;;;;;;;20.03;47.45;101571.44;6249377;22;20374;-85
2021/03/26 09:00:41;;;;;;;3.63;1.77;;;;;;;20.01;47.46;101564.47;6278651;22;20035;-88
2021/03/26 09:03:25;;;;;;;4.55;2.17;;;;;;;19.79;48.19;101555.94;6250079;22;20004;-85
2021/03/26 09:05:51;;;;;;;3.78;1.77;;;;;;;19.81;48.02;101564.66;6278605;22;20090;-84
2021/03/26 09:08:34;;;;;;;2.47;1.90;;;;;;;19.75;48.16;101557.75;6276905;22;20419;-84
2021/03/26 09:11:37;;;;;;;4.13;1.90;;;;;;;19.75;48.21;101552.50;6277416;22;20003;-85
2021/03/26 09:14:22;;;;;;;2.92;1.70;;;;;;;19.71;48.16;101556.03;6251700;22;20018;-84
2021/03/26 09:17:09;;;;;;;4.00;1.80;;;;;;;19.69;48.40;101560.34;6279254;22;19996;-87
2021/03/26 09:19:48;;;;;;;3.70;2.08;;;;;;;19.65;48.33;101554.28;6254811;22;20492;-84
2021/03/26 09:22:43;;;;;;;3.00;1.88;;;;;;;19.61;48.24;101556.91;6254439;22;20000;-88
2021/03/26 09:25:27;;;;;;;4.00;1.80;;;;;;;19.61;48.54;101572.59;6252007;22;20042;-85
2021/03/26 09:27:57;;;;;;;3.33;2.00;;;;;;;19.57;48.55;101552.59;6278495;22;20004;-83
2021/03/26 09:30:23;;;;;;;3.05;1.90;;;;;;;19.55;48.65;101551.72;6252339;22;20008;-86
2021/03/26 09:33:07;;;;;;;2.90;2.00;;;;;;;19.50;49.09;101562.22;6279755;22;20008;-85
2021/03/26 09:35:36;;;;;;;2.85;2.00;;;;;;;19.54;48.77;101561.31;6281143;22;20031;-84
2021/03/26 09:38:06;;;;;;;3.45;1.95;;;;;;;19.49;49.08;101560.50;6254111;22;20494;-84
2021/03/26 09:40:47;;;;;;;3.83;2.08;;;;;;;19.45;48.91;101564.00;6280464;22;20085;-82
2021/03/26 09:43:36;;;;;;;3.30;1.98;;;;;;;19.44;49.04;101568.31;6252791;22;20011;-83
2021/03/26 09:46:09;;;;;;;3.10;1.88;;;;;;;19.44;48.97;101557.00;6203961;22;20000;-82
2021/03/26 09:49:02;;;;;;;3.25;2.15;;;;;;;19.42;49.07;101558.75;6253963;22;20008;-87
2021/03/26 09:51:46;;;;;;;2.22;1.80;;;;;;;19.42;48.87;101566.59;6283026;22;20003;-81
2021/03/26 09:54:35;;;;;;;3.00;1.80;;;;;;;19.37;49.37;101560.53;6282973;22;20069;-82
2021/03/26 09:57:16;;;;;;;2.78;1.98;;;;;;;19.37;49.08;101558.78;6255366;22;20037;-81
2021/03/26 10:00:19;;;;;;;2.35;1.58;;;;;;;19.35;49.04;101560.53;6282941;22;20011;-82
2021/03/26 10:02:59;;;;;;;3.38;1.75;;;;;;;19.36;49.18;101553.56;6283894;22;20078;-81
2021/03/26 10:05:49;;;;;;;2.05;1.42;;;;;;;19.34;49.14;101545.78;6256614;22;20008;-81
2021/03/26 10:11:25;;;;;;;3.65;1.80;;;;;;;19.33;48.97;101544.88;6285332;22;20305;-85
2021/03/26 10:13:57;;;;;;;2.88;2.00;;;;;;;19.33;49.21;101549.25;6287090;22;20003;-81
2021/03/26 10:16:49;;;;;;;2.90;2.03;;;;;;;19.34;49.03;101543.16;6256050;22;20008;-83
2021/03/26 10:19:26;;;;;;;2.75;1.73;;;;;;;19.31;49.18;101546.66;6290289;22;20023;-83
2021/03/26 10:21:56;;;;;;;2.13;1.60;;;;;;;19.35;49.38;101546.63;6233433;22;20004;-83
2021/03/26 10:24:37;;;;;;;2.30;1.70;;;;;;;19.31;49.16;101538.84;6234469;22;20003;-84
2021/03/26 10:27:26;;;;;;;2.70;1.70;;;;;;;19.34;49.36;101537.94;6253345;22;20008;-82
2021/03/26 10:30:35;;;;;;;2.55;1.67;;;;;;;19.35;49.14;101526.63;6287066;22;20022;-83
2021/03/26 10:33:16;;;;;;;3.45;1.83;;;;;;;19.33;48.82;101525.75;6193925;22;20004;-82
2021/03/26 10:36:40;;;;;;;3.33;1.85;;;;;;;19.32;49.15;101516.22;6290345;22;20014;-82
2021/03/26 10:39:16;;;;;;;2.38;1.60;;;;;;;19.34;48.93;101511.84;6203223;22;20008;-82
2021/03/26 10:41:58;;;;;;;2.63;1.60;;;;;;;19.33;49.07;101524.00;6258733;22;20026;-80
2021/03/26 10:45:01;;;;;;;2.85;1.63;;;;;;;19.36;49.13;101519.66;6259149;22;20008;-82
2021/03/26 10:47:32;;;;;;;2.35;1.55;;;;;;;19.40;48.88;101504.00;6286605;22;20004;-82
2021/03/26 10:50:22;;;;;;;3.10;1.52;;;;;;;19.42;48.97;101507.44;6259273;22;20004;-83
2021/03/26 10:52:54;;;;;;;2.55;1.65;;;;;;;19.43;48.81;101498.72;6286538;22;20014;-82
2021/03/26 10:55:24;;;;;;;2.50;1.52;;;;;;;19.46;48.73;101508.28;6255661;22;20458;-83
2021/03/26 10:58:25;;;;;;;2.88;1.70;;;;;;;19.48;48.63;101503.91;6280098;22;20035;-82
2021/03/26 11:01:03;;;;;;;2.28;1.60;;;;;;;19.42;49.09;101490.91;6281239;22;20005;-84
2021/03/26 11:03:40;;;;;;;3.08;1.80;;;;;;;19.40;48.84;101485.72;6278034;22;20070;-82
2021/03/26 11:06:21;;;;;;;2.65;1.50;;;;;;;19.41;48.79;101477.00;6280657;22;20034;-81
2021/03/26 11:08:56;;;;;;;2.20;1.50;;;;;;;19.39;49.10;101483.97;6255621;22;20000;-81
2021/03/26 11:11:24;;;;;;;2.53;1.55;;;;;;;19.39;48.89;101478.75;6255374;22;20035;-83
2021/03/26 11:14:42;;;;;;;2.47;1.30;;;;;;;19.42;48.92;101473.50;6280565;22;20019;-81
2021/03/26 11:17:20;;;;;;;2.40;1.70;;;;;;;19.40;48.91;101487.44;6128628;23;20018;-82
2021/03/26 11:20:22;;;;;;;2.10;1.60;;;;;;;19.33;48.82;101474.41;6130101;23;20013;-83
2021/03/26 11:22:59;;;;;;;3.53;1.50;;;;;;;19.31;48.98;101462.25;6265413;22;20335;-81
2021/03/26 11:25:45;;;;;;;1.80;1.45;;;;;;;19.34;49.12;101451.81;6281013;22;20003;-81
2021/03/26 11:28:38;;;;;;;3.80;1.55;;;;;;;19.32;49.16;101464.00;6257785;22;20011;-84
2021/03/26 11:31:26;;;;;;;2.25;1.67;;;;;;;19.30;48.91;101458.81;6283161;22;20034;-81
2021/03/26 11:34:12;;;;;;;2.58;1.63;;;;;;;19.36;48.89;101462.22;6256678;22;20335;-81
2021/03/26 11:37:07;;;;;;;3.67;1.50;;;;;;;19.33;49.12;101457.91;6280764;22;20004;-81
2021/03/26 11:39:59;;;;;;;2.10;1.52;;;;;;;19.35;48.99;101453.53;6284529;22;20000;-85
2021/03/26 11:42:35;;;;;;;1.80;1.23;;;;;;;19.37;48.83;101445.72;6256342;22;20312;-81
2021/03/26 11:45:16;;;;;;;33.63;9.13;;;;;;;19.41;48.88;101443.06;6281716;22;20065;-84
2021/03/26 11:47:45;;;;;;;43.22;9.52;;;;;;;19.46;48.77;101451.72;6283184;22;20049;-82
2021/03/26 11:50:27;;;;;;;47.20;11.73;;;;;;;19.51;48.40;101446.47;6254767;22;20022;-83
2021/03/26 11:52:56;;;;;;;42.83;9.77;;;;;;;19.53;48.48;101442.97;6280128;22;20007;-82
2021/03/26 11:55:29;;;;;;;49.55;9.90;;;;;;;19.47;48.85;101443.03;6281749;22;20249;-83
2021/03/26 11:58:04;;;;;;;27.63;7.53;;;;;;;19.52;48.75;101437.75;6281040;22;20491;-82
2021/03/26 12:00:32;;;;;;;24.52;7.05;;;;;;;19.48;48.75;101436.91;6256844;22;20036;-85
2021/03/26 12:03:22;;;;;;;25.15;6.43;;;;;;;19.53;48.67;101429.94;6282062;22;20008;-85
2021/03/26 12:05:59;;;;;;;24.52;5.85;;;;;;;19.55;48.62;101424.66;6282617;22;20007;-84
2021/03/26 12:08:57;;;;;;;27.95;5.97;;;;;;;19.57;48.46;101424.66;6253983;22;20003;-83
2021/03/26 12:11:41;;;;;;;19.88;5.65;;;;;;;19.55;48.80;101432.50;6282809;22;20007;-86
2021/03/26 12:14:26;;;;;;;18.33;5.43;;;;;;;19.53;48.90;101427.31;6286456;22;20012;-82
2021/03/26 12:17:04;;;;;;;21.67;4.82;;;;;;;19.52;48.72;101416.88;6285527;22;20403;-84
2021/03/26 12:19:42;;;;;;;20.98;4.72;;;;;;;19.50;48.66;101418.63;6292666;22;20000;-83
2021/03/26 12:22:19;;;;;;;16.10;4.78;;;;;;;19.49;48.92;101414.31;6301317;22;20019;-83
2021/03/26 12:25:02;;;;;;;12.70;4.35;;;;;;;19.48;49.02;101426.47;6269572;22;20007;-85
2021/03/26 12:27:48;;;;;;;14.77;4.03;;;;;;;19.45;48.88;101421.28;6284677;22;20010;-81
2021/03/26 12:30:26;;;;;;;11.73;3.50;;;;;;;19.45;48.82;101418.69;6258306;22;20086;-81
2021/03/26 12:33:27;;;;;;;15.68;3.75;;;;;;;19.45;48.83;101412.59;6259578;22;20006;-81
2021/03/26 12:36:00;;;;;;;9.10;3.40;;;;;;;19.49;48.87;101401.25;6262773;22;20010;-84
2021/03/26 12:38:37;;;;;;;14.30;3.63;;;;;;;19.56;48.60;101400.31;6233037;22;19995;-85
2021/03/26 12:41:12;;;;;;;9.73;3.70;;;;;;;19.55;48.40;101398.56;6280829;22;20038;-84
2021/03/26 12:44:03;;;;;;;13.02;3.80;;;;;;;19.55;48.62;101401.19;6281344;22;20431;-84
2021/03/26 12:46:54;;;;;;;9.68;3.35;;;;;;;19.55;48.38;101397.72;6281309;22;20003;-83
2021/03/26 12:49:44;;;;;;;11.00;3.28;;;;;;;19.58;48.32;101395.09;6280185;22;20427;-84
2021/03/26 12:52:28;;;;;;;9.23;3.15;;;;;;;19.57;48.27;101395.94;6283650;22;20008;-88
2021/03/26 12:55:06;;;;;;;13.93;3.65;;;;;;;19.58;48.38;101400.31;6279824;22;20019;-84
2021/03/26 12:58:18;;;;;;;8.23;3.22;;;;;;;19.56;48.24;101399.47;6253102;22;20095;-86
2021/03/26 13:01:09;;;;;;;7.40;2.80;;;;;;;19.55;48.33;101395.09;6254055;22;20012;-84
2021/03/26 13:04:04;;;;;;;8.88;3.25;;;;;;;19.55;48.19;101388.13;6252280;22;20057;-85
2021/03/26 13:06:54;;;;;;;6.78;2.70;;;;;;;19.55;48.48;101389.88;6279070;22;20004;-85
2021/03/26 13:09:24;;;;;;;7.53;3.40;;;;;;;19.53;48.32;101382.03;6253671;22;20015;-85